Colorado Springs, CO (80916)

7:37 AM MDT on October 24, 2014 (GMT -0600)
Canterbury Park | Change Station
CLOSE
Current Station
Personal Weather Station
Location: Colorado Springs, CO
Elevation: 6001 ft
Nearby Weather Stations

Elev 6001 ft 38.79 °N, 104.73 °W | Updated 29 minutes ago

Mostly Cloudy
Mostly Cloudy
46.7 °F
Feels Like 47 °F
N
0.0
Wind Variable Wind from East
Gusts 2.0 mph

Today
High -- | Low -- °F
--% Chance of Precip.
Yesterday
High -- | Low -- °F
Precip. -- in
7:17 AM 6:08 PM
New Moon, 0% visible
Pressure 30.09 in
Visibility 10.0 miles
Clouds Few 15000 ft
Scattered Clouds 20000 ft
Mostly Cloudy 25000 ft
Windchill 47 °F
Dew Point 31 °F
Humidity 54%
Rainfall 0.00 in
Snow Depth 0 in
UV 0 out of 12
Pollen 3.10 out of 12
PM2.5 Good
Flu Activity Sporadic
METAR KCOS 241254Z 36008KT 10SM FEW150 SCT200 BKN250 09/M03 A3022 RMK AO2 SLP189 T00941028

More Conditions Fewer Conditions

Pressure 30.09 in
Visibility 10.0 miles
Clouds Few 15000 ft
Scattered Clouds 20000 ft
Mostly Cloudy 25000 ft
Windchill 47 °F
Dew Point 31 °F
Humidity 54%
Rainfall 0.00 in
Snow Depth 0 in
UV 0 out of 12
Pollen 3.10 out of 12
PM2.5 Good
Flu Activity Sporadic
METAR KCOS 241254Z 36008KT 10SM FEW150 SCT200 BKN250 09/M03 A3022 RMK AO2 SLP189 T00941028

More Conditions Fewer Conditions

10-Day Weather Forecast

Almanac

Astronomy

Oct. 24, 2014 Rise Set
Actual Time 7:17 AM MDT 6:08 PM MDT
Civil Twilight 6:50 AM MDT 6:35 PM MDT
Nautical Twilight 6:19 AM MDT 7:06 PM MDT
Astronomical Twilight 5:48 AM MDT 7:37 PM MDT
Moon 7:58 AM MDT 6:50 PM MDT
Length of Visible Light 11h 45m
Length of Day
10h 50m
Tomorrow will be 2m 20s shorter.
New Moon, 0% of the Moon is Illuminated
Today
New Moon
Oct 30
First Quarter
Nov 6
Full
Nov 14
Last Quarter
Nov 22
New

Today's Extremes

State Highs State Lows

Community

WunderPhotos

Upload Photos

1,764,550 photos uploaded!

WunderBlogs® & News

Nearby

Air Quality

  Air Quality AQ Index Pollutant
Yesterday Good
OZONE
Yesterday Good
PM2.5
Current Good
PM2.5
Friday Good
PM2.5
Friday Good
OZONE

Snow Depth

Station Depth Elevation
Glen Cove 0 in 11460 ft
South Colony 0 in 10800 ft
Rough And Tumble 0 in 10360 ft
Echo Lake 0 in 10600 ft
Medano Pass 0 in 9620 ft

Earthquake Activity

City Distance Mag. Time & Date
No recent earthquake activity has been reported nearby.
Minimum magnitude displayed is 2.5.

Coastal Water Temperatures

Place Temperature
No Stations Reporting

Nearby Weather Stations